Time;durP1;ratioP1;P1;durP2;ratioP2;P2;SDS_P1;SDS_P2;PMS_P1;PMS_P2;Temp;Humidity;BMP_temperature;BMP_pressure;BME280_temperature;BME280_humidity;BME280_pressure;Samples;Min_cycle;Max_cycle;Signal;HPM_P1;HPM_P2
2022/03/08 00:02:09;;;;;;;24.38;17.90;;;;;;;;;;5084508;28;20196;-66
2022/03/08 00:04:35;;;;;;;20.85;16.65;;;;;;;;;;5084807;28;20242;-66
2022/03/08 00:07:02;;;;;;;24.20;16.45;;;;;;;;;;5084335;28;20216;-66
2022/03/08 00:09:28;;;;;;;24.40;16.25;;;;;;;;;;5084303;28;20196;-66
2022/03/08 00:11:54;;;;;;;24.25;16.65;;;;;;;;;;5084169;28;20220;-66
2022/03/08 00:14:21;;;;;;;22.13;16.83;;;;;;;;;;5084325;28;20235;-66
2022/03/08 00:16:47;;;;;;;22.33;16.83;;;;;;;;;;5083931;28;20204;-66
2022/03/08 00:19:14;;;;;;;24.25;16.67;;;;;;;;;;5084569;28;20233;-66
2022/03/08 00:21:41;;;;;;;23.10;16.13;;;;;;;;;;5083776;28;20246;-66
2022/03/08 00:24:07;;;;;;;22.52;17.17;;;;;;;;;;5084161;28;20526;-66
2022/03/08 00:26:34;;;;;;;19.48;14.75;;;;;;;;;;5083950;28;20549;-66
2022/03/08 00:29:00;;;;;;;18.77;15.02;;;;;;;;;;5083888;28;20241;-66
2022/03/08 00:31:27;;;;;;;19.98;14.93;;;;;;;;;;5084136;28;20931;-66
2022/03/08 00:33:53;;;;;;;21.08;14.43;;;;;;;;;;5083843;28;20200;-66
2022/03/08 00:36:21;;;;;;;20.17;14.80;;;;;;;;;;5083787;28;20196;-66
2022/03/08 00:38:47;;;;;;;19.35;14.95;;;;;;;;;;5083933;28;20241;-66
2022/03/08 00:41:13;;;;;;;22.30;15.15;;;;;;;;;;5083909;28;20204;-66
2022/03/08 00:43:40;;;;;;;21.67;16.30;;;;;;;;;;5083630;28;20196;-66
2022/03/08 00:46:06;;;;;;;21.88;16.92;;;;;;;;;;5083730;28;20242;-66
2022/03/08 00:48:32;;;;;;;23.90;16.50;;;;;;;;;;5083729;28;20547;-66
2022/03/08 00:50:59;;;;;;;23.00;16.42;;;;;;;;;;5083516;28;20203;-66
2022/03/08 00:53:26;;;;;;;24.25;16.90;;;;;;;;;;5083429;28;20265;-66
2022/03/08 00:55:52;;;;;;;23.27;16.92;;;;;;;;;;5083566;28;20500;-67
2022/03/08 00:58:19;;;;;;;23.08;17.55;;;;;;;;;;5083152;28;20197;-67
2022/03/08 01:00:45;;;;;;;23.17;17.25;;;;;;;;;;5083562;28;20500;-67
2022/03/08 01:03:11;;;;;;;21.52;16.50;;;;;;;;;;5083465;28;20515;-67
2022/03/08 01:05:38;;;;;;;23.38;16.08;;;;;;;;;;5083342;28;20208;-67
2022/03/08 01:08:04;;;;;;;22.20;16.20;;;;;;;;;;5083123;28;20242;-67
2022/03/08 01:10:33;;;;;;;24.85;17.00;;;;;;;;;;5083202;28;20234;-67
2022/03/08 01:12:59;;;;;;;21.38;15.80;;;;;;;;;;5083379;28;20227;-67
2022/03/08 01:15:26;;;;;;;20.48;15.55;;;;;;;;;;5083468;28;20262;-67
2022/03/08 01:17:52;;;;;;;22.00;15.30;;;;;;;;;;5082956;28;20515;-67
2022/03/08 01:20:19;;;;;;;23.17;15.70;;;;;;;;;;5082925;28;20196;-67
2022/03/08 01:22:45;;;;;;;22.00;15.95;;;;;;;;;;5082932;28;20189;-67
2022/03/08 01:25:14;;;;;;;21.85;15.63;;;;;;;;;;5082967;28;20204;-67
2022/03/08 01:27:41;;;;;;;21.20;16.00;;;;;;;;;;5082716;28;20234;-67
2022/03/08 01:30:09;;;;;;;21.38;15.98;;;;;;;;;;5082786;28;20196;-67
2022/03/08 01:32:36;;;;;;;19.27;14.57;;;;;;;;;;5082277;28;20350;-67
2022/03/08 01:35:02;;;;;;;20.30;14.63;;;;;;;;;;5082996;28;20209;-67
2022/03/08 01:37:28;;;;;;;21.38;14.75;;;;;;;;;;5082637;28;20242;-67
2022/03/08 01:39:55;;;;;;;21.42;15.65;;;;;;;;;;5082640;28;20197;-67
2022/03/08 01:42:21;;;;;;;20.38;14.43;;;;;;;;;;5082611;28;20238;-67
2022/03/08 01:44:49;;;;;;;22.35;15.32;;;;;;;;;;5083033;28;20224;-67
2022/03/08 01:47:16;;;;;;;21.60;14.98;;;;;;;;;;5082496;28;20203;-67
2022/03/08 01:49:42;;;;;;;19.15;14.43;;;;;;;;;;5082600;28;20196;-67
2022/03/08 01:52:09;;;;;;;21.83;15.27;;;;;;;;;;5082755;28;20250;-67
2022/03/08 01:54:35;;;;;;;19.48;14.45;;;;;;;;;;5082460;28;20196;-67
2022/03/08 01:57:01;;;;;;;19.85;15.45;;;;;;;;;;5082541;28;20196;-67
2022/03/08 01:59:28;;;;;;;18.58;14.50;;;;;;;;;;5082398;28;20200;-67
2022/03/08 02:01:55;;;;;;;24.70;16.23;;;;;;;;;;5082406;28;20197;-67
2022/03/08 02:04:22;;;;;;;23.38;16.08;;;;;;;;;;5082403;28;20207;-67
2022/03/08 02:06:48;;;;;;;22.73;15.90;;;;;;;;;;5082455;28;20238;-67
2022/03/08 02:09:14;;;;;;;19.65;15.23;;;;;;;;;;5082181;28;20242;-67
2022/03/08 02:11:40;;;;;;;24.50;16.10;;;;;;;;;;5082374;28;20204;-67
2022/03/08 02:14:07;;;;;;;21.25;15.82;;;;;;;;;;5082427;28;20204;-66
2022/03/08 02:16:33;;;;;;;20.73;15.68;;;;;;;;;;5082280;28;20500;-66
2022/03/08 02:19:01;;;;;;;24.45;16.52;;;;;;;;;;5082407;28;20503;-66
2022/03/08 02:21:33;;;;;;;23.27;15.32;;;;;;;;;;5082916;28;20242;-67
2022/03/08 02:23:59;;;;;;;24.67;16.13;;;;;;;;;;5082661;28;20196;-67
2022/03/08 02:26:25;;;;;;;20.60;14.90;;;;;;;;;;5082172;28;20250;-67
2022/03/08 02:28:52;;;;;;;23.80;16.05;;;;;;;;;;5082040;28;20200;-67
2022/03/08 02:31:18;;;;;;;22.00;15.68;;;;;;;;;;5082338;28;20426;-67
2022/03/08 02:33:44;;;;;;;25.02;16.02;;;;;;;;;;5082136;28;20220;-67
2022/03/08 02:36:11;;;;;;;22.95;15.68;;;;;;;;;;5081671;28;20223;-67
2022/03/08 02:38:38;;;;;;;22.35;15.15;;;;;;;;;;5081981;28;20202;-67
2022/03/08 02:41:05;;;;;;;23.00;16.38;;;;;;;;;;5082134;28;20504;-66
2022/03/08 02:43:31;;;;;;;19.80;15.60;;;;;;;;;;5082890;28;20496;-67
2022/03/08 02:45:57;;;;;;;20.80;15.85;;;;;;;;;;5085953;28;20196;-67
2022/03/08 02:48:27;;;;;;;21.73;15.43;;;;;;;;;;5086014;28;20215;-67
2022/03/08 02:50:54;;;;;;;22.98;16.10;;;;;;;;;;5085349;28;20234;-67
2022/03/08 02:53:20;;;;;;;25.45;16.80;;;;;;;;;;5086163;28;20220;-66
2022/03/08 02:55:48;;;;;;;22.10;16.50;;;;;;;;;;5085998;28;20208;-66
2022/03/08 02:58:14;;;;;;;22.33;14.98;;;;;;;;;;5085537;28;20434;-67
2022/03/08 03:00:40;;;;;;;21.80;14.40;;;;;;;;;;5085931;28;20550;-67
2022/03/08 03:03:07;;;;;;;23.85;16.92;;;;;;;;;;5085831;28;20192;-69
2022/03/08 03:05:33;;;;;;;21.17;15.38;;;;;;;;;;5085818;28;20535;-67
2022/03/08 03:08:00;;;;;;;25.48;16.17;;;;;;;;;;5085685;28;20210;-67
2022/03/08 03:10:27;;;;;;;22.38;16.50;;;;;;;;;;5085682;28;20235;-67
2022/03/08 03:12:55;;;;;;;20.98;15.70;;;;;;;;;;5085444;28;20235;-67
2022/03/08 03:15:22;;;;;;;22.17;16.00;;;;;;;;;;5085728;28;20200;-67
2022/03/08 03:17:49;;;;;;;25.92;16.23;;;;;;;;;;5085320;28;20546;-67
2022/03/08 03:20:16;;;;;;;23.35;16.90;;;;;;;;;;5085262;28;20197;-67
2022/03/08 03:22:43;;;;;;;24.52;16.13;;;;;;;;;;5085177;28;20276;-67
2022/03/08 03:25:10;;;;;;;20.45;14.85;;;;;;;;;;5085285;28;20196;-67
2022/03/08 03:27:36;;;;;;;19.67;13.63;;;;;;;;;;5084991;28;20200;-67
2022/03/08 03:30:04;;;;;;;19.38;13.45;;;;;;;;;;5085381;28;20258;-67
2022/03/08 03:32:31;;;;;;;18.88;14.82;;;;;;;;;;5085112;28;20449;-67
2022/03/08 03:34:57;;;;;;;17.20;13.35;;;;;;;;;;5085088;28;20266;-67
2022/03/08 03:37:24;;;;;;;17.83;13.13;;;;;;;;;;5084759;28;20208;-67
2022/03/08 03:39:51;;;;;;;16.77;12.25;;;;;;;;;;5084821;28;20369;-67
2022/03/08 03:42:17;;;;;;;15.10;11.65;;;;;;;;;;5085026;28;20249;-67
2022/03/08 03:44:43;;;;;;;14.13;11.65;;;;;;;;;;5085015;28;20534;-67
2022/03/08 03:47:11;;;;;;;18.58;13.05;;;;;;;;;;5084909;28;20503;-67
2022/03/08 03:49:37;;;;;;;16.17;12.68;;;;;;;;;;5084697;28;20192;-67
2022/03/08 03:52:04;;;;;;;16.75;12.68;;;;;;;;;;5084831;28;20364;-67
2022/03/08 03:54:30;;;;;;;16.95;12.43;;;;;;;;;;5084602;28;20220;-67
2022/03/08 03:56:56;;;;;;;14.75;11.25;;;;;;;;;;5084062;28;20557;-67
2022/03/08 03:59:23;;;;;;;15.10;12.18;;;;;;;;;;5084872;28;20395;-67
2022/03/08 04:01:49;;;;;;;14.18;10.75;;;;;;;;;;5084734;28;20495;-67
2022/03/08 04:04:16;;;;;;;13.20;10.98;;;;;;;;;;5084656;28;20424;-67
2022/03/08 04:06:43;;;;;;;13.43;10.57;;;;;;;;;;5084340;28;20445;-67
2022/03/08 04:09:09;;;;;;;15.57;10.50;;;;;;;;;;5084398;28;20196;-67
2022/03/08 04:11:36;;;;;;;13.85;10.32;;;;;;;;;;5084663;28;20246;-67
2022/03/08 04:14:02;;;;;;;14.63;11.07;;;;;;;;;;5084412;28;20224;-67
2022/03/08 04:16:28;;;;;;;13.02;10.57;;;;;;;;;;5084269;28;20201;-67
2022/03/08 04:18:55;;;;;;;13.57;11.30;;;;;;;;;;5084260;28;20250;-67
2022/03/08 04:21:22;;;;;;;19.30;12.40;;;;;;;;;;5084267;28;20238;-67
2022/03/08 04:23:48;;;;;;;18.83;13.50;;;;;;;;;;5084477;28;20208;-67
2022/03/08 04:26:15;;;;;;;19.52;13.55;;;;;;;;;;5084214;28;20204;-67
2022/03/08 04:28:41;;;;;;;18.77;13.90;;;;;;;;;;5084062;28;20196;-67
2022/03/08 04:31:07;;;;;;;20.55;14.18;;;;;;;;;;5083945;28;20196;-67
2022/03/08 04:33:33;;;;;;;22.00;14.05;;;;;;;;;;5083895;28;20212;-67
2022/03/08 04:36:00;;;;;;;19.88;14.13;;;;;;;;;;5083768;28;20427;-67
2022/03/08 04:38:27;;;;;;;22.15;14.60;;;;;;;;;;5083790;28;20496;-67
2022/03/08 04:40:54;;;;;;;19.15;13.20;;;;;;;;;;5084044;28;20500;-67
2022/03/08 04:43:20;;;;;;;23.33;14.48;;;;;;;;;;5083841;28;20193;-67
2022/03/08 04:45:46;;;;;;;19.58;13.98;;;;;;;;;;5084278;28;20242;-68
2022/03/08 04:48:12;;;;;;;18.60;13.88;;;;;;;;;;5083441;28;20204;-68
2022/03/08 04:50:40;;;;;;;19.23;14.02;;;;;;;;;;5083496;28;20205;-67
2022/03/08 04:53:07;;;;;;;19.90;14.02;;;;;;;;;;5083462;28;20250;-68
2022/03/08 04:55:34;;;;;;;31.58;15.65;;;;;;;;;;5083758;28;20207;-68
2022/03/08 04:58:01;;;;;;;26.00;14.93;;;;;;;;;;5083290;28;20197;-68
2022/03/08 05:00:27;;;;;;;20.98;14.00;;;;;;;;;;5083608;28;20197;-67
2022/03/08 05:02:53;;;;;;;22.42;14.40;;;;;;;;;;5083451;28;20200;-68
2022/03/08 05:05:19;;;;;;;18.85;13.30;;;;;;;;;;5083674;28;20224;-68
2022/03/08 05:07:46;;;;;;;19.80;14.07;;;;;;;;;;5082328;28;20200;-68
2022/03/08 05:10:13;;;;;;;18.10;12.95;;;;;;;;;;5083203;28;20207;-68
2022/03/08 05:12:40;;;;;;;17.00;12.52;;;;;;;;;;5083078;28;20208;-68
2022/03/08 05:15:07;;;;;;;14.15;12.15;;;;;;;;;;5083091;28;20197;-68
2022/03/08 05:17:33;;;;;;;18.83;12.75;;;;;;;;;;5082970;28;20196;-68
2022/03/08 05:20:00;;;;;;;15.73;12.35;;;;;;;;;;5082877;28;20200;-68
2022/03/08 05:22:26;;;;;;;17.50;11.95;;;;;;;;;;5083094;28;20197;-68
2022/03/08 05:24:52;;;;;;;17.00;11.70;;;;;;;;;;5083116;28;20194;-68
2022/03/08 05:27:19;;;;;;;15.43;10.55;;;;;;;;;;5082976;28;20196;-68
2022/03/08 05:29:47;;;;;;;17.52;12.13;;;;;;;;;;5082993;28;20337;-68
2022/03/08 05:32:13;;;;;;;20.00;12.35;;;;;;;;;;5082764;28;20279;-68
2022/03/08 05:34:39;;;;;;;20.35;13.40;;;;;;;;;;5082535;28;20270;-67
2022/03/08 05:37:06;;;;;;;19.90;13.57;;;;;;;;;;5082678;28;20234;-68
2022/03/08 05:39:32;;;;;;;18.65;12.88;;;;;;;;;;5082657;28;20196;-67
2022/03/08 05:41:58;;;;;;;15.40;10.95;;;;;;;;;;5082541;28;20234;-67
2022/03/08 05:44:25;;;;;;;14.90;11.30;;;;;;;;;;5082714;28;20227;-67
2022/03/08 05:46:52;;;;;;;12.85;10.75;;;;;;;;;;5082308;28;20310;-68
2022/03/08 05:49:18;;;;;;;16.67;11.48;;;;;;;;;;5082637;28;20250;-68
2022/03/08 05:51:45;;;;;;;17.17;11.60;;;;;;;;;;5082722;28;20197;-67
2022/03/08 05:54:11;;;;;;;16.88;12.00;;;;;;;;;;5082550;28;20514;-67
2022/03/08 05:56:37;;;;;;;19.52;13.23;;;;;;;;;;5082288;28;20242;-67
2022/03/08 05:59:03;;;;;;;13.88;10.82;;;;;;;;;;5082537;28;20538;-67
2022/03/08 06:01:30;;;;;;;15.05;10.43;;;;;;;;;;5082305;28;20233;-67
2022/03/08 06:03:58;;;;;;;17.50;11.57;;;;;;;;;;5082343;28;20238;-68
2022/03/08 06:06:24;;;;;;;14.93;10.85;;;;;;;;;;5082225;28;20239;-67
2022/03/08 06:08:50;;;;;;;21.00;11.13;;;;;;;;;;5082380;28;20200;-68
2022/03/08 06:11:16;;;;;;;15.50;11.30;;;;;;;;;;5082489;28;20196;-68
2022/03/08 06:13:43;;;;;;;17.98;12.00;;;;;;;;;;5082289;28;20220;-67
2022/03/08 06:16:09;;;;;;;19.65;11.57;;;;;;;;;;5082227;28;20554;-67
2022/03/08 06:18:35;;;;;;;18.83;11.10;;;;;;;;;;5082376;28;20259;-67
2022/03/08 06:21:03;;;;;;;15.57;11.27;;;;;;;;;;5082317;28;20204;-67
2022/03/08 06:23:29;;;;;;;17.38;12.50;;;;;;;;;;5082178;28;20230;-68
2022/03/08 06:25:55;;;;;;;25.08;13.20;;;;;;;;;;5082199;28;20203;-67
2022/03/08 06:28:22;;;;;;;21.77;13.75;;;;;;;;;;5082130;28;20197;-67
2022/03/08 06:30:48;;;;;;;16.20;12.48;;;;;;;;;;5082056;28;20231;-68
2022/03/08 06:33:14;;;;;;;19.17;12.27;;;;;;;;;;5082432;28;20218;-70
2022/03/08 06:35:40;;;;;;;21.92;11.75;;;;;;;;;;5082786;28;20200;-67
2022/03/08 06:38:08;;;;;;;15.18;11.25;;;;;;;;;;5082241;28;20204;-67
2022/03/08 06:40:34;;;;;;;18.48;12.50;;;;;;;;;;5082271;28;20196;-67
2022/03/08 06:43:00;;;;;;;19.85;11.32;;;;;;;;;;5082046;28;20470;-67
2022/03/08 06:45:27;;;;;;;18.40;11.13;;;;;;;;;;5081858;28;20205;-67
2022/03/08 06:47:53;;;;;;;19.70;11.75;;;;;;;;;;5081666;28;20242;-67
2022/03/08 06:50:19;;;;;;;17.50;12.07;;;;;;;;;;5081854;28;20234;-67
2022/03/08 06:52:45;;;;;;;17.65;11.27;;;;;;;;;;5082508;28;20196;-67
2022/03/08 06:55:13;;;;;;;14.35;11.40;;;;;;;;;;5081795;28;20540;-66
2022/03/08 06:57:40;;;;;;;20.40;12.68;;;;;;;;;;5071143;28;20230;-58
2022/03/08 07:00:07;;;;;;;18.42;11.73;;;;;;;;;;5068837;28;20208;-57
2022/03/08 07:02:33;;;;;;;13.70;10.13;;;;;;;;;;5076268;28;20240;-58
2022/03/08 07:04:59;;;;;;;21.08;11.82;;;;;;;;;;5072822;28;20227;-59
2022/03/08 07:07:26;;;;;;;14.65;10.35;;;;;;;;;;5060457;28;20531;-58
2022/03/08 07:09:52;;;;;;;13.02;10.23;;;;;;;;;;5074163;28;20235;-58
2022/03/08 07:12:20;;;;;;;19.60;11.50;;;;;;;;;;5075085;28;20481;-58
2022/03/08 07:14:46;;;;;;;13.40;10.00;;;;;;;;;;5076604;28;20491;-58
2022/03/08 07:17:13;;;;;;;9.63;8.18;;;;;;;;;;5076927;28;20429;-58
2022/03/08 07:19:40;;;;;;;13.77;7.95;;;;;;;;;;5075862;28;20372;-58
2022/03/08 07:22:06;;;;;;;9.45;6.88;;;;;;;;;;5076286;28;20219;-59
2022/03/08 07:24:33;;;;;;;9.07;6.78;;;;;;;;;;5076910;28;20565;-58
2022/03/08 07:27:00;;;;;;;12.85;7.80;;;;;;;;;;5076186;28;20519;-58
2022/03/08 07:29:27;;;;;;;7.65;6.85;;;;;;;;;;5076065;28;20455;-59
2022/03/08 07:31:54;;;;;;;7.80;6.95;;;;;;;;;;5078973;28;20215;-59
2022/03/08 07:34:21;;;;;;;8.55;7.68;;;;;;;;;;5080016;28;20224;-59
2022/03/08 07:36:47;;;;;;;9.18;7.28;;;;;;;;;;5079469;28;20215;-60
2022/03/08 07:39:13;;;;;;;8.77;7.65;;;;;;;;;;5079759;28;20250;-59
2022/03/08 07:41:39;;;;;;;8.50;6.90;;;;;;;;;;5079594;28;20249;-58
2022/03/08 07:44:06;;;;;;;8.77;7.65;;;;;;;;;;5079755;28;20197;-60
2022/03/08 07:46:33;;;;;;;9.30;7.47;;;;;;;;;;5079564;28;20254;-59
2022/03/08 07:49:00;;;;;;;11.00;8.23;;;;;;;;;;5079039;28;20647;-58
2022/03/08 07:51:26;;;;;;;8.80;7.97;;;;;;;;;;5079420;28;20254;-58
2022/03/08 07:53:52;;;;;;;9.60;7.10;;;;;;;;;;5079527;28;20620;-59
2022/03/08 07:56:18;;;;;;;10.57;7.82;;;;;;;;;;5079217;28;20447;-60
2022/03/08 07:58:46;;;;;;;9.63;7.57;;;;;;;;;;5078913;28;20209;-59
2022/03/08 08:01:12;;;;;;;8.07;7.28;;;;;;;;;;5079612;28;20215;-59
2022/03/08 08:03:40;;;;;;;10.48;8.02;;;;;;;;;;5079314;28;20208;-60
2022/03/08 08:06:06;;;;;;;9.55;7.47;;;;;;;;;;5079039;28;20224;-58
2022/03/08 08:08:32;;;;;;;8.38;7.57;;;;;;;;;;5078643;28;20208;-59
2022/03/08 08:10:59;;;;;;;8.35;7.50;;;;;;;;;;5069007;28;20213;-60
2022/03/08 08:13:25;;;;;;;8.70;7.60;;;;;;;;;;5059132;28;20217;-58
2022/03/08 08:15:51;;;;;;;8.63;7.72;;;;;;;;;;5058906;28;20229;-59
2022/03/08 08:18:17;;;;;;;8.55;7.28;;;;;;;;;;5058850;28;20231;-62
2022/03/08 08:20:45;;;;;;;10.48;8.15;;;;;;;;;;5059680;28;20205;-59
2022/03/08 08:23:11;;;;;;;9.00;7.45;;;;;;;;;;5058816;28;20209;-59
2022/03/08 08:25:38;;;;;;;9.80;7.88;;;;;;;;;;5058854;28;20205;-59
2022/03/08 08:28:05;;;;;;;10.43;7.38;;;;;;;;;;5058671;28;20442;-60
2022/03/08 08:30:31;;;;;;;7.72;7.03;;;;;;;;;;5058651;28;20267;-58
2022/03/08 08:32:58;;;;;;;8.77;7.15;;;;;;;;;;5058878;28;20209;-59
2022/03/08 08:35:24;;;;;;;8.00;7.20;;;;;;;;;;5058581;28;20225;-59
2022/03/08 08:37:51;;;;;;;7.70;7.00;;;;;;;;;;5058185;28;20212;-59
2022/03/08 08:40:18;;;;;;;11.32;7.32;;;;;;;;;;5058378;28;20236;-59
2022/03/08 08:42:44;;;;;;;7.93;6.78;;;;;;;;;;5058485;28;20216;-59
2022/03/08 08:45:11;;;;;;;8.50;7.63;;;;;;;;;;5058493;28;20201;-59
2022/03/08 08:47:37;;;;;;;7.53;6.82;;;;;;;;;;5058047;28;20213;-59
2022/03/08 08:50:04;;;;;;;10.35;6.78;;;;;;;;;;5058426;28;20209;-58
2022/03/08 08:52:30;;;;;;;7.47;6.78;;;;;;;;;;5069827;28;20276;-59
2022/03/08 08:54:58;;;;;;;7.35;6.75;;;;;;;;;;5078247;28;20289;-59
2022/03/08 08:57:24;;;;;;;7.00;6.30;;;;;;;;;;5078044;28;20661;-58
2022/03/08 08:59:50;;;;;;;6.90;6.30;;;;;;;;;;5077167;28;20410;-60
2022/03/08 09:02:17;;;;;;;7.60;6.60;;;;;;;;;;5077685;28;20524;-56
2022/03/08 09:04:43;;;;;;;7.70;6.70;;;;;;;;;;5078664;28;20201;-56
2022/03/08 09:07:20;;;;;;;8.30;6.60;;;;;;;;;;5077803;28;20212;-56
2022/03/08 09:09:49;;;;;;;7.35;6.53;;;;;;;;;;5077331;28;20214;-56
2022/03/08 09:12:16;;;;;;;7.57;5.80;;;;;;;;;;5077340;28;20244;-56
2022/03/08 09:14:43;;;;;;;11.75;6.43;;;;;;;;;;5077264;28;20232;-56
2022/03/08 09:17:09;;;;;;;10.35;6.28;;;;;;;;;;5077247;28;20530;-57
2022/03/08 09:19:36;;;;;;;6.95;5.97;;;;;;;;;;5076772;28;20212;-57
2022/03/08 09:22:02;;;;;;;7.15;6.10;;;;;;;;;;5077314;28;20209;-57
2022/03/08 09:24:28;;;;;;;7.85;6.20;;;;;;;;;;5077314;28;20208;-57
2022/03/08 09:26:54;;;;;;;7.32;6.35;;;;;;;;;;5077079;28;20247;-56
2022/03/08 09:29:22;;;;;;;12.25;6.15;;;;;;;;;;5076755;28;20208;-56
2022/03/08 09:31:52;;;;;;;7.60;6.57;;;;;;;;;;5077084;28;20281;-58
2022/03/08 09:34:18;;;;;;;13.30;5.68;;;;;;;;;;5076876;28;20263;-56
2022/03/08 09:36:44;;;;;;;6.28;5.60;;;;;;;;;;5077030;28;20208;-56
2022/03/08 09:39:11;;;;;;;6.80;6.07;;;;;;;;;;5076107;28;20220;-57
2022/03/08 09:41:38;;;;;;;7.40;5.60;;;;;;;;;;5077055;28;20208;-57
2022/03/08 09:44:04;;;;;;;6.55;5.95;;;;;;;;;;5077137;28;20212;-57
2022/03/08 09:46:33;;;;;;;6.45;5.80;;;;;;;;;;5077204;28;20523;-57
2022/03/08 09:48:59;;;;;;;6.10;5.50;;;;;;;;;;5076544;28;20230;-56
2022/03/08 09:51:26;;;;;;;5.32;4.85;;;;;;;;;;5076980;28;20254;-56
2022/03/08 09:53:53;;;;;;;6.63;5.78;;;;;;;;;;5076344;28;20208;-57
2022/03/08 09:56:19;;;;;;;6.00;5.43;;;;;;;;;;5076270;28;20240;-58
2022/03/08 09:58:45;;;;;;;6.53;5.93;;;;;;;;;;5075879;28;20208;-57
2022/03/08 10:01:12;;;;;;;6.90;5.82;;;;;;;;;;5076177;28;20212;-56
2022/03/08 10:03:40;;;;;;;9.10;5.75;;;;;;;;;;5076860;28;20212;-56
2022/03/08 10:06:07;;;;;;;6.40;5.80;;;;;;;;;;5076282;28;20605;-56
2022/03/08 10:08:33;;;;;;;5.65;5.25;;;;;;;;;;5075950;28;20205;-56
2022/03/08 10:11:00;;;;;;;5.88;5.30;;;;;;;;;;5076413;28;20212;-57
2022/03/08 10:13:28;;;;;;;5.47;5.00;;;;;;;;;;5076179;28;20216;-57
2022/03/08 10:16:08;;;;;;;5.13;4.65;;;;;;;;;;5076172;28;20439;-57
2022/03/08 10:18:35;;;;;;;5.00;4.50;;;;;;;;;;5075995;28;20519;-58
2022/03/08 10:21:03;;;;;;;5.30;4.80;;;;;;;;;;5075622;28;20287;-58
2022/03/08 10:23:39;;;;;;;6.13;4.68;;;;;;;;;;5076625;28;20207;-57
2022/03/08 10:26:05;;;;;;;7.72;4.40;;;;;;;;;;5076076;28;20230;-57
2022/03/08 10:28:31;;;;;;;7.38;5.32;;;;;;;;;;5075500;28;20208;-56
2022/03/08 10:30:58;;;;;;;5.93;5.35;;;;;;;;;;5076233;28;20208;-57
2022/03/08 10:33:33;;;;;;;4.88;4.47;;;;;;;;;;5076472;28;20220;-57
2022/03/08 10:35:59;;;;;;;5.45;4.80;;;;;;;;;;5075413;28;20526;-56
2022/03/08 10:38:27;;;;;;;5.03;4.57;;;;;;;;;;5063436;28;20200;-56
2022/03/08 10:40:53;;;;;;;8.43;5.13;;;;;;;;;;5066950;28;20687;-56
2022/03/08 10:43:20;;;;;;;5.65;5.03;;;;;;;;;;5076966;28;20434;-56
2022/03/08 10:45:47;;;;;;;9.10;4.97;;;;;;;;;;5076001;28;20226;-56
2022/03/08 10:48:18;;;;;;;5.50;4.68;;;;;;;;;;5076017;28;20212;-56
2022/03/08 10:50:45;;;;;;;5.70;4.53;;;;;;;;;;5073278;28;20243;-56
2022/03/08 10:53:12;;;;;;;5.60;5.10;;;;;;;;;;5074514;28;20724;-56
2022/03/08 10:55:40;;;;;;;6.63;4.90;;;;;;;;;;5073467;28;20228;-56
2022/03/08 10:58:07;;;;;;;7.05;5.60;;;;;;;;;;5066847;28;20246;-56
2022/03/08 11:00:37;;;;;;;5.18;4.78;;;;;;;;;;5065388;28;20541;-57
2022/03/08 11:03:05;;;;;;;7.80;4.82;;;;;;;;;;5058947;28;20262;-57
2022/03/08 11:05:33;;;;;;;5.88;4.78;;;;;;;;;;5069969;28;20220;-56
2022/03/08 11:07:59;;;;;;;5.50;4.63;;;;;;;;;;5072761;28;20434;-57
2022/03/08 11:10:26;;;;;;;4.85;4.45;;;;;;;;;;5083381;28;20576;-56
2022/03/08 11:12:54;;;;;;;4.90;4.50;;;;;;;;;;5083191;28;20216;-56
2022/03/08 11:15:21;;;;;;;5.72;4.38;;;;;;;;;;5082960;28;20228;-57
2022/03/08 11:17:48;;;;;;;4.60;4.25;;;;;;;;;;5082952;28;20396;-58
2022/03/08 11:20:16;;;;;;;5.60;4.15;;;;;;;;;;5082650;28;20377;-57
2022/03/08 11:22:43;;;;;;;5.93;4.45;;;;;;;;;;5082908;28;20203;-58
2022/03/08 11:25:10;;;;;;;5.88;4.43;;;;;;;;;;5082565;28;20200;-58
2022/03/08 11:27:37;;;;;;;5.95;4.15;;;;;;;;;;5082717;28;20271;-57
2022/03/08 11:30:05;;;;;;;5.22;4.78;;;;;;;;;;5082679;28;20231;-56
2022/03/08 11:32:34;;;;;;;5.40;4.38;;;;;;;;;;5082749;28;20205;-55
2022/03/08 11:35:03;;;;;;;5.20;4.70;;;;;;;;;;5082395;28;20236;-58
2022/03/08 11:37:30;;;;;;;6.63;5.28;;;;;;;;;;5082455;28;20204;-57
2022/03/08 11:40:07;;;;;;;5.30;4.80;;;;;;;;;;5082475;28;20236;-56
2022/03/08 11:42:36;;;;;;;5.90;5.40;;;;;;;;;;5082492;28;20203;-57
2022/03/08 11:45:06;;;;;;;5.47;4.82;;;;;;;;;;5082257;28;20385;-56
2022/03/08 11:47:39;;;;;;;10.30;5.28;;;;;;;;;;5081932;28;20205;-57
2022/03/08 11:50:06;;;;;;;6.72;5.93;;;;;;;;;;5083049;28;20386;-57
2022/03/08 11:52:35;;;;;;;6.18;5.60;;;;;;;;;;5082458;28;20548;-58
2022/03/08 11:55:03;;;;;;;5.88;5.25;;;;;;;;;;5081794;28;20220;-57
2022/03/08 11:57:45;;;;;;;5.72;5.22;;;;;;;;;;5082256;28;20208;-56
2022/03/08 12:00:20;;;;;;;6.80;5.53;;;;;;;;;;5069494;28;20204;-56
2022/03/08 12:02:46;;;;;;;6.38;5.43;;;;;;;;;;5082124;28;20204;-57
2022/03/08 12:05:27;;;;;;;6.28;5.38;;;;;;;;;;5082110;28;20220;-57
2022/03/08 12:07:54;;;;;;;6.18;5.68;;;;;;;;;;5081953;28;20515;-57
2022/03/08 12:10:24;;;;;;;7.50;6.13;;;;;;;;;;5081814;28;20223;-57
2022/03/08 12:12:52;;;;;;;7.75;5.80;;;;;;;;;;5081820;28;20204;-56
2022/03/08 12:15:20;;;;;;;6.07;5.57;;;;;;;;;;5082037;28;20246;-56
2022/03/08 12:18:15;;;;;;;7.75;5.63;;;;;;;;;;5081242;28;20208;-55
2022/03/08 12:20:41;;;;;;;12.10;8.45;;;;;;;;;;5081786;28;20207;-55
2022/03/08 12:23:08;;;;;;;7.18;6.47;;;;;;;;;;5082050;28;20204;-56
2022/03/08 12:25:35;;;;;;;10.32;6.47;;;;;;;;;;5081893;28;20278;-56
2022/03/08 12:28:01;;;;;;;7.65;6.20;;;;;;;;;;5083010;28;20204;-56
2022/03/08 12:30:40;;;;;;;6.80;6.18;;;;;;;;;;5081552;28;20211;-55
2022/03/08 12:33:06;;;;;;;8.93;6.22;;;;;;;;;;5081513;28;20227;-56
2022/03/08 12:35:32;;;;;;;10.38;6.45;;;;;;;;;;5081571;28;20224;-57
2022/03/08 12:38:00;;;;;;;12.02;5.93;;;;;;;;;;5081214;28;20211;-57
2022/03/08 12:40:27;;;;;;;9.02;5.68;;;;;;;;;;5081426;28;20204;-55
2022/03/08 12:42:57;;;;;;;8.07;5.75;;;;;;;;;;5081449;28;20235;-57
2022/03/08 12:45:24;;;;;;;6.35;5.85;;;;;;;;;;5082039;28;20421;-57
2022/03/08 12:47:53;;;;;;;6.07;5.47;;;;;;;;;;5080933;28;20254;-56
2022/03/08 12:50:20;;;;;;;6.93;5.07;;;;;;;;;;5081315;28;20211;-56
2022/03/08 12:52:47;;;;;;;5.88;4.90;;;;;;;;;;5081587;28;20235;-56
2022/03/08 12:55:15;;;;;;;6.15;5.32;;;;;;;;;;5081250;28;20204;-56
2022/03/08 12:57:49;;;;;;;4.97;4.60;;;;;;;;;;5080988;28;20266;-55
2022/03/08 13:00:28;;;;;;;7.35;4.82;;;;;;;;;;5080888;28;20205;-56
2022/03/08 13:02:56;;;;;;;5.43;4.93;;;;;;;;;;5081104;28;20211;-55
2022/03/08 13:05:26;;;;;;;5.28;4.70;;;;;;;;;;5080884;28;20224;-56
2022/03/08 13:07:54;;;;;;;5.13;4.72;;;;;;;;;;5080546;28;20204;-56
2022/03/08 13:10:20;;;;;;;5.72;5.18;;;;;;;;;;5080758;28;20205;-55
2022/03/08 13:12:49;;;;;;;5.18;4.78;;;;;;;;;;5080578;28;20538;-55
2022/03/08 13:15:16;;;;;;;4.95;4.55;;;;;;;;;;5080849;28;20418;-56
2022/03/08 13:17:44;;;;;;;5.22;4.80;;;;;;;;;;5080622;28;20280;-56
2022/03/08 13:20:28;;;;;;;5.88;5.32;;;;;;;;;;5080576;28;20504;-57
2022/03/08 13:22:55;;;;;;;6.72;5.35;;;;;;;;;;5080151;28;20204;-57
2022/03/08 13:25:23;;;;;;;7.65;5.18;;;;;;;;;;5080119;28;20204;-57
2022/03/08 13:27:50;;;;;;;5.22;4.82;;;;;;;;;;5078768;28;20211;-56
2022/03/08 13:30:17;;;;;;;5.03;4.35;;;;;;;;;;5080234;28;20204;-56
2022/03/08 13:32:43;;;;;;;5.45;4.10;;;;;;;;;;5080225;28;20204;-55
2022/03/08 13:35:10;;;;;;;5.97;4.95;;;;;;;;;;5080337;28;20204;-57
2022/03/08 13:37:47;;;;;;;7.13;5.18;;;;;;;;;;5079842;28;20197;-57
2022/03/08 13:40:28;;;;;;;8.00;5.10;;;;;;;;;;5080483;28;20204;-57
2022/03/08 13:42:56;;;;;;;5.85;5.18;;;;;;;;;;5077871;28;20254;-55
2022/03/08 13:45:22;;;;;;;7.45;5.32;;;;;;;;;;5079982;28;20388;-57
2022/03/08 13:47:52;;;;;;;5.45;4.95;;;;;;;;;;5079901;28;20204;-57
2022/03/08 13:50:19;;;;;;;5.90;5.30;;;;;;;;;;5080027;28;20409;-56
2022/03/08 13:52:51;;;;;;;7.00;5.90;;;;;;;;;;5080008;28;20473;-56
2022/03/08 13:55:17;;;;;;;6.63;6.00;;;;;;;;;;5079840;28;20236;-55
2022/03/08 13:57:52;;;;;;;6.40;5.90;;;;;;;;;;5080116;28;20499;-55
2022/03/08 14:00:18;;;;;;;6.43;5.38;;;;;;;;;;5080243;28;20246;-56
2022/03/08 14:02:44;;;;;;;9.10;5.72;;;;;;;;;;5079872;28;20290;-56
2022/03/08 14:05:11;;;;;;;5.90;5.30;;;;;;;;;;5076061;28;20228;-56
2022/03/08 14:07:37;;;;;;;7.15;5.57;;;;;;;;;;5079772;28;20265;-55
2022/03/08 14:10:05;;;;;;;7.28;6.63;;;;;;;;;;5080391;28;20212;-55
2022/03/08 14:12:41;;;;;;;7.65;6.10;;;;;;;;;;5079702;28;20212;-56
2022/03/08 14:15:08;;;;;;;7.40;5.38;;;;;;;;;;5079773;28;20261;-56
2022/03/08 14:17:34;;;;;;;8.25;6.32;;;;;;;;;;5079110;28;20220;-56
2022/03/08 14:20:13;;;;;;;8.80;6.03;;;;;;;;;;5079888;28;20208;-56
2022/03/08 14:22:57;;;;;;;7.57;6.30;;;;;;;;;;5079714;28;20279;-56
2022/03/08 14:25:25;;;;;;;6.95;6.28;;;;;;;;;;5079701;28;20465;-56
2022/03/08 14:27:52;;;;;;;7.82;6.28;;;;;;;;;;5079253;28;20240;-55
2022/03/08 14:30:21;;;;;;;7.25;6.60;;;;;;;;;;5079123;28;20208;-57